createdAt,value
2022-07-29T00:00:28.075Z,1.20
2022-07-29T00:01:28.062Z,1.20
2022-07-29T00:02:28.126Z,1.30
2022-07-29T00:03:28.036Z,1.10
2022-07-29T00:04:28.090Z,1.30
2022-07-29T00:05:28.016Z,1.10
2022-07-29T00:06:28.007Z,1.20
2022-07-29T00:07:27.994Z,1.10
2022-07-29T00:08:27.985Z,1.30
2022-07-29T00:09:27.972Z,1.20
2022-07-29T00:10:27.962Z,1.30
2022-07-29T00:11:27.949Z,1.30
2022-07-29T00:12:27.942Z,1.30
2022-07-29T00:13:32.383Z,1.30
2022-07-29T00:14:27.924Z,1.20
2022-07-29T00:15:27.911Z,1.30
2022-07-29T00:16:27.951Z,1.10
2022-07-29T00:17:27.889Z,1.20
2022-07-29T00:18:27.879Z,1.30
2022-07-29T00:19:27.867Z,1.20
2022-07-29T00:20:27.856Z,1.20
2022-07-29T00:21:27.851Z,1.50
2022-07-29T00:22:27.834Z,1.50
2022-07-29T00:23:27.821Z,1.30
2022-07-29T00:24:27.814Z,1.20
2022-07-29T00:25:27.801Z,1.40
2022-07-29T00:26:27.794Z,1.00
2022-07-29T00:27:27.781Z,1.40
2022-07-29T00:28:27.770Z,1.60
2022-07-29T00:29:35.490Z,1.20
2022-07-29T00:30:28.776Z,1.20
2022-07-29T00:31:27.789Z,1.00
2022-07-29T00:32:27.728Z,1.30
2022-07-29T00:33:27.716Z,1.20
2022-07-29T00:34:27.710Z,1.20
2022-07-29T00:35:27.696Z,1.10
2022-07-29T00:36:27.688Z,1.50
2022-07-29T00:37:27.675Z,1.40
2022-07-29T00:38:27.667Z,1.20
2022-07-29T00:39:27.651Z,1.10
2022-07-29T00:40:27.641Z,1.20
2022-07-29T00:41:27.631Z,1.30
2022-07-29T00:42:27.618Z,1.50
2022-07-29T00:43:27.606Z,1.20
2022-07-29T00:44:27.597Z,1.20
2022-07-29T00:45:27.586Z,1.30
2022-07-29T00:46:27.683Z,1.30
2022-07-29T00:47:27.562Z,1.40
2022-07-29T00:48:27.553Z,1.40
2022-07-29T00:49:27.560Z,1.30
2022-07-29T00:50:27.530Z,1.30
2022-07-29T00:51:27.519Z,1.40
2022-07-29T00:52:27.509Z,1.10
2022-07-29T00:53:27.496Z,1.30
2022-07-29T00:54:27.487Z,1.20
2022-07-29T00:55:27.472Z,1.70
2022-07-29T00:56:27.465Z,1.70
2022-07-29T00:57:27.458Z,1.30
2022-07-29T00:58:27.444Z,1.40
2022-07-29T00:59:34.582Z,1.40
2022-07-29T01:00:27.487Z,1.20
2022-07-29T01:01:27.490Z,1.20
2022-07-29T01:02:27.488Z,1.10
2022-07-29T01:03:27.388Z,1.30
2022-07-29T01:04:27.376Z,1.20
2022-07-29T01:05:50.788Z,1.30
2022-07-29T01:06:28.381Z,1.10
2022-07-29T01:07:27.344Z,1.40
2022-07-29T01:08:27.333Z,1.20
2022-07-29T01:09:34.481Z,1.10
2022-07-29T01:10:28.339Z,1.30
2022-07-29T01:11:27.300Z,1.40
2022-07-29T01:12:27.286Z,1.30
2022-07-29T01:13:27.277Z,1.20
2022-07-29T01:14:27.265Z,1.20
2022-07-29T01:15:27.255Z,1.40
2022-07-29T01:16:27.306Z,1.30
2022-07-29T01:17:27.230Z,1.30
2022-07-29T01:18:27.221Z,1.00
2022-07-29T01:19:27.210Z,1.20
2022-07-29T01:20:31.376Z,1.50
2022-07-29T01:21:27.188Z,1.60
2022-07-29T01:22:27.178Z,1.10
2022-07-29T01:23:27.165Z,1.20
2022-07-29T01:24:27.157Z,1.20
2022-07-29T01:25:27.141Z,1.20
2022-07-29T01:26:27.142Z,1.20
2022-07-29T01:27:27.122Z,1.20
2022-07-29T01:28:27.110Z,1.70
2022-07-29T01:29:29.766Z,1.30
2022-07-29T01:30:27.088Z,1.10
2022-07-29T01:31:27.107Z,1.40
2022-07-29T01:32:28.796Z,1.30
2022-07-29T01:33:27.057Z,1.30
2022-07-29T01:34:27.052Z,1.30
2022-07-29T01:35:27.032Z,1.60
2022-07-29T01:36:27.026Z,1.60
2022-07-29T01:37:27.011Z,1.40
2022-07-29T01:38:27.000Z,1.20
2022-07-29T01:39:26.987Z,1.50
2022-07-29T01:40:26.979Z,1.30
2022-07-29T01:41:26.966Z,1.20
2022-07-29T01:42:26.957Z,1.10
2022-07-29T01:43:26.945Z,1.30
2022-07-29T01:44:26.937Z,1.40
2022-07-29T01:45:26.922Z,1.10
2022-07-29T01:46:27.014Z,1.10
2022-07-29T01:47:26.903Z,1.60
2022-07-29T01:48:26.898Z,1.50
2022-07-29T01:49:26.931Z,1.30
2022-07-29T01:50:26.872Z,1.30
2022-07-29T01:51:26.862Z,1.20
2022-07-29T01:52:26.854Z,1.70
2022-07-29T01:53:26.837Z,1.40
2022-07-29T01:54:26.828Z,1.30
2022-07-29T01:55:26.813Z,1.30
2022-07-29T01:56:26.810Z,1.40
2022-07-29T01:57:26.791Z,1.30
2022-07-29T01:58:26.784Z,1.30
2022-07-29T01:59:26.766Z,1.80
2022-07-29T02:00:26.766Z,1.40
2022-07-29T02:01:26.817Z,1.40
2022-07-29T02:02:26.739Z,1.50
2022-07-29T02:03:26.727Z,1.20
2022-07-29T02:04:30.016Z,1.60
2022-07-29T02:05:26.839Z,1.40
2022-07-29T02:06:26.695Z,1.70
2022-07-29T02:07:26.682Z,1.40
2022-07-29T02:08:26.675Z,1.40
2022-07-29T02:09:26.813Z,1.10
2022-07-29T02:10:26.651Z,1.30
2022-07-29T02:11:26.639Z,1.20
2022-07-29T02:12:26.733Z,1.40
2022-07-29T02:13:26.618Z,1.20
2022-07-29T02:14:26.612Z,1.30
2022-07-29T02:15:26.599Z,1.30
2022-07-29T02:16:26.691Z,1.70
2022-07-29T02:17:26.574Z,1.10
2022-07-29T02:18:26.574Z,1.30
2022-07-29T02:19:26.567Z,1.20
2022-07-29T02:20:26.542Z,1.30
2022-07-29T02:21:26.530Z,1.20
2022-07-29T02:22:26.522Z,1.20
2022-07-29T02:23:26.508Z,1.40
2022-07-29T02:24:26.502Z,1.20
2022-07-29T02:25:37.640Z,1.50
2022-07-29T02:26:27.508Z,1.80
2022-07-29T02:27:26.468Z,1.20
2022-07-29T02:28:26.465Z,1.20
2022-07-29T02:29:26.447Z,1.50
2022-07-29T02:30:26.433Z,1.30
2022-07-29T02:31:26.550Z,1.30
2022-07-29T02:32:26.410Z,1.40
2022-07-29T02:33:26.397Z,1.30
2022-07-29T02:34:26.390Z,1.40
2022-07-29T02:35:26.377Z,1.30
2022-07-29T02:36:26.365Z,1.80
2022-07-29T02:37:26.352Z,1.30
2022-07-29T02:38:26.345Z,1.30
2022-07-29T02:39:26.332Z,1.30
2022-07-29T02:40:26.321Z,1.90
2022-07-29T02:41:26.309Z,1.60
2022-07-29T02:42:26.299Z,1.20
2022-07-29T02:43:26.286Z,1.30
2022-07-29T02:44:29.991Z,1.40
2022-07-29T02:45:27.299Z,1.30
2022-07-29T02:46:29.395Z,1.50
2022-07-29T02:47:26.242Z,1.50
2022-07-29T02:48:26.232Z,1.40
2022-07-29T02:49:26.320Z,1.70
2022-07-29T02:50:26.211Z,1.20
2022-07-29T02:51:43.573Z,1.50
2022-07-29T02:52:26.190Z,1.20
2022-07-29T02:53:26.174Z,1.30
2022-07-29T02:54:26.167Z,1.20
2022-07-29T02:55:26.153Z,1.30
2022-07-29T02:56:26.142Z,1.50
2022-07-29T02:57:26.131Z,1.30
2022-07-29T02:58:26.121Z,1.30
2022-07-29T02:59:26.108Z,1.40
2022-07-29T03:00:26.099Z,1.40
2022-07-29T03:01:26.162Z,1.40
2022-07-29T03:02:26.076Z,1.30
2022-07-29T03:03:26.064Z,1.40
2022-07-29T03:04:26.109Z,1.20
2022-07-29T03:05:26.040Z,1.30
2022-07-29T03:06:37.595Z,1.40
2022-07-29T03:07:26.023Z,1.50
2022-07-29T03:08:26.009Z,1.40
2022-07-29T03:09:25.997Z,1.30
2022-07-29T03:10:26.005Z,1.40
2022-07-29T03:11:40.078Z,1.30
2022-07-29T03:12:27.046Z,1.30
2022-07-29T03:13:25.952Z,1.50
2022-07-29T03:14:25.962Z,1.10
2022-07-29T03:15:25.938Z,1.50
2022-07-29T03:16:25.982Z,1.70
2022-07-29T03:17:25.948Z,1.40
2022-07-29T03:18:25.929Z,1.60
2022-07-29T03:19:25.915Z,1.60
2022-07-29T03:20:25.902Z,1.40
2022-07-29T03:21:25.865Z,1.20
2022-07-29T03:22:25.856Z,1.40
2022-07-29T03:23:25.843Z,1.60
2022-07-29T03:24:25.833Z,1.50
2022-07-29T03:25:25.821Z,1.40
2022-07-29T03:26:25.808Z,1.20
2022-07-29T03:27:25.802Z,1.50
2022-07-29T03:28:26.929Z,1.40
2022-07-29T03:29:25.778Z,1.20
2022-07-29T03:30:26.793Z,1.50
2022-07-29T03:31:25.817Z,1.20
2022-07-29T03:32:25.745Z,1.50
2022-07-29T03:33:25.736Z,1.50
2022-07-29T03:34:25.724Z,1.40
2022-07-29T03:35:25.710Z,1.40
2022-07-29T03:36:25.697Z,1.70
2022-07-29T03:37:25.687Z,1.30
2022-07-29T03:38:25.674Z,1.60
2022-07-29T03:39:25.667Z,1.60
2022-07-29T03:40:25.659Z,1.70
2022-07-29T03:41:25.642Z,1.40
2022-07-29T03:42:25.630Z,1.40
2022-07-29T03:43:25.619Z,1.70
2022-07-29T03:44:25.608Z,1.30
2022-07-29T03:45:25.599Z,1.60
2022-07-29T03:46:25.638Z,1.50
2022-07-29T03:47:43.456Z,1.60
2022-07-29T03:48:25.565Z,1.50
2022-07-29T03:49:25.610Z,1.40
2022-07-29T03:50:25.545Z,1.30
2022-07-29T03:51:33.329Z,1.20
2022-07-29T03:52:25.518Z,1.60
2022-07-29T03:53:25.512Z,1.60
2022-07-29T03:54:25.500Z,1.50
2022-07-29T03:55:25.492Z,1.60
2022-07-29T03:56:25.476Z,1.40
2022-07-29T03:57:25.473Z,1.50
2022-07-29T03:58:25.453Z,1.60
2022-07-29T03:59:25.445Z,1.40
2022-07-29T04:00:25.430Z,1.80
2022-07-29T04:01:25.461Z,1.60
2022-07-29T04:02:30.411Z,1.60
2022-07-29T04:03:25.456Z,1.30
2022-07-29T04:04:25.393Z,1.50
2022-07-29T04:05:25.377Z,1.70
2022-07-29T04:06:25.362Z,1.50
2022-07-29T04:07:25.352Z,1.60
2022-07-29T04:08:25.342Z,1.20
2022-07-29T04:09:25.334Z,1.40
2022-07-29T04:10:31.807Z,1.50
2022-07-29T04:11:25.315Z,1.30
2022-07-29T04:12:25.313Z,1.50
2022-07-29T04:13:25.287Z,1.50
2022-07-29T04:14:25.279Z,1.50
2022-07-29T04:15:25.268Z,1.30
2022-07-29T04:16:25.287Z,1.40
2022-07-29T04:17:25.245Z,1.40
2022-07-29T04:18:25.234Z,1.90
2022-07-29T04:19:25.223Z,2.10
2022-07-29T04:20:25.210Z,1.60
2022-07-29T04:21:25.200Z,1.70
2022-07-29T04:22:25.191Z,1.30
2022-07-29T04:23:25.179Z,1.40
2022-07-29T04:24:25.164Z,1.60
2022-07-29T04:25:25.155Z,1.60
2022-07-29T04:26:25.141Z,1.80
2022-07-29T04:27:25.131Z,1.30
2022-07-29T04:28:25.120Z,1.50
2022-07-29T04:29:25.110Z,1.40
2022-07-29T04:30:25.104Z,1.50
2022-07-29T04:31:26.008Z,1.60
2022-07-29T04:32:25.078Z,1.80
2022-07-29T04:33:25.139Z,1.60
2022-07-29T04:34:27.971Z,1.60
2022-07-29T04:35:25.058Z,1.50
2022-07-29T04:36:29.234Z,1.60
2022-07-29T04:37:25.026Z,1.40
2022-07-29T04:38:25.011Z,1.60
2022-07-29T04:39:25.003Z,1.60
2022-07-29T04:40:24.994Z,1.20
2022-07-29T04:41:32.780Z,1.70
2022-07-29T04:42:27.483Z,1.60
2022-07-29T04:43:24.958Z,1.50
2022-07-29T04:44:28.662Z,1.50
2022-07-29T04:45:24.934Z,2.10
2022-07-29T04:46:24.987Z,1.70
2022-07-29T04:47:24.920Z,1.80
2022-07-29T04:48:28.687Z,1.60
2022-07-29T04:49:24.981Z,1.50
2022-07-29T04:50:24.882Z,2.00
2022-07-29T04:51:24.875Z,1.40
2022-07-29T04:52:24.862Z,1.90
2022-07-29T04:53:24.856Z,1.70
2022-07-29T04:54:25.551Z,1.70
2022-07-29T04:55:24.889Z,1.50
2022-07-29T04:56:24.991Z,1.60
2022-07-29T04:57:25.084Z,1.40
2022-07-29T04:58:25.101Z,2.50
2022-07-29T04:59:24.791Z,1.70
2022-07-29T05:00:28.009Z,1.90
2022-07-29T05:01:24.801Z,1.70
2022-07-29T05:02:24.931Z,1.50
2022-07-29T05:03:24.747Z,1.60
2022-07-29T05:04:24.731Z,1.70
2022-07-29T05:05:24.729Z,1.50
2022-07-29T05:06:24.711Z,2.20
2022-07-29T05:07:24.701Z,1.90
2022-07-29T05:08:24.692Z,1.50
2022-07-29T05:09:24.681Z,1.60
2022-07-29T05:10:24.669Z,1.50
2022-07-29T05:11:28.624Z,1.60
2022-07-29T05:12:24.649Z,1.50
2022-07-29T05:13:24.638Z,1.60
2022-07-29T05:14:24.626Z,1.80
2022-07-29T05:15:24.703Z,1.80
2022-07-29T05:16:24.665Z,1.50
2022-07-29T05:17:24.723Z,1.80
2022-07-29T05:18:26.028Z,1.90
2022-07-29T05:19:24.605Z,1.60
2022-07-29T05:20:24.575Z,1.80
2022-07-29T05:21:24.564Z,1.80
2022-07-29T05:22:24.715Z,1.90
2022-07-29T05:23:24.529Z,1.80
2022-07-29T05:24:24.516Z,1.60
2022-07-29T05:25:24.506Z,1.60
2022-07-29T05:26:25.523Z,1.70
2022-07-29T05:27:24.585Z,1.80
2022-07-29T05:28:24.468Z,1.80
2022-07-29T05:29:44.008Z,1.90
2022-07-29T05:30:24.448Z,1.70
2022-07-29T05:31:24.476Z,1.90
2022-07-29T05:32:24.423Z,1.60
2022-07-29T05:33:36.198Z,1.80
2022-07-29T05:34:25.430Z,2.10
2022-07-29T05:35:24.391Z,1.90
2022-07-29T05:36:24.379Z,1.80
2022-07-29T05:37:24.373Z,1.80
2022-07-29T05:38:24.357Z,1.90
2022-07-29T05:39:48.441Z,1.70
2022-07-29T05:40:24.354Z,1.80
2022-07-29T05:41:24.355Z,1.80
2022-07-29T05:42:24.335Z,1.90
2022-07-29T05:43:24.316Z,1.90
2022-07-29T05:44:25.410Z,1.90
2022-07-29T05:45:24.283Z,2.20
2022-07-29T05:46:24.385Z,2.00
2022-07-29T05:47:24.261Z,2.00
2022-07-29T05:48:24.254Z,1.70
2022-07-29T05:49:27.293Z,1.90
2022-07-29T05:50:24.226Z,1.70
2022-07-29T05:51:24.216Z,1.80
2022-07-29T05:52:24.206Z,2.00
2022-07-29T05:53:24.196Z,1.70
2022-07-29T05:54:24.184Z,2.00
2022-07-29T05:55:24.379Z,2.00
2022-07-29T05:56:24.160Z,2.00
2022-07-29T05:57:24.150Z,1.70
2022-07-29T05:58:24.141Z,1.80
2022-07-29T05:59:29.798Z,1.80
2022-07-29T06:00:25.147Z,1.60
2022-07-29T06:01:24.231Z,1.60
2022-07-29T06:02:24.099Z,2.40
2022-07-29T06:03:24.115Z,1.90
2022-07-29T06:04:24.240Z,2.10
2022-07-29T06:05:24.084Z,1.80
2022-07-29T06:06:24.053Z,1.90
2022-07-29T06:07:24.043Z,1.70
2022-07-29T06:08:24.029Z,2.00
2022-07-29T06:09:24.089Z,1.80
2022-07-29T06:10:27.037Z,1.70
2022-07-29T06:11:23.998Z,2.00
2022-07-29T06:12:23.984Z,1.90
2022-07-29T06:13:23.978Z,1.80
2022-07-29T06:14:23.964Z,1.90
2022-07-29T06:15:23.955Z,1.70
2022-07-29T06:16:29.907Z,2.60
2022-07-29T06:17:24.957Z,1.70
2022-07-29T06:18:23.921Z,1.70
2022-07-29T06:19:23.911Z,1.80
2022-07-29T06:20:27.086Z,2.10
2022-07-29T06:21:23.886Z,2.00
2022-07-29T06:22:23.874Z,2.00
2022-07-29T06:23:23.864Z,1.80
2022-07-29T06:24:23.855Z,1.90
2022-07-29T06:25:23.849Z,1.70
2022-07-29T06:26:31.350Z,1.60
2022-07-29T06:27:24.863Z,1.90
2022-07-29T06:28:23.807Z,1.60
2022-07-29T06:29:23.799Z,1.70
2022-07-29T06:30:23.895Z,1.90
2022-07-29T06:31:23.852Z,1.80
2022-07-29T06:32:23.764Z,1.80
2022-07-29T06:33:23.756Z,1.90
2022-07-29T06:34:23.762Z,2.00
2022-07-29T06:35:42.323Z,2.00
2022-07-29T06:36:25.092Z,2.20
2022-07-29T06:37:23.715Z,1.90
2022-07-29T06:38:31.557Z,1.90
2022-07-29T06:39:23.687Z,1.60
2022-07-29T06:40:23.672Z,1.90
2022-07-29T06:41:23.670Z,1.90
2022-07-29T06:42:23.654Z,2.00
2022-07-29T06:43:23.643Z,2.00
2022-07-29T06:44:23.630Z,1.80
2022-07-29T06:45:23.623Z,1.90
2022-07-29T06:46:24.054Z,1.90
2022-07-29T06:47:23.687Z,2.40
2022-07-29T06:48:23.786Z,1.90
2022-07-29T06:49:23.918Z,1.90
2022-07-29T06:50:23.910Z,1.90
2022-07-29T06:51:24.199Z,2.10
2022-07-29T06:52:23.546Z,2.00
2022-07-29T06:53:23.538Z,2.00
2022-07-29T06:54:23.523Z,1.70
2022-07-29T06:55:24.966Z,2.20
2022-07-29T06:56:23.501Z,1.70
2022-07-29T06:57:23.499Z,1.90
2022-07-29T06:58:23.481Z,1.60
2022-07-29T06:59:32.070Z,1.90
2022-07-29T07:00:24.643Z,2.00
2022-07-29T07:01:23.516Z,2.00
2022-07-29T07:02:23.476Z,2.10
2022-07-29T07:03:23.432Z,2.00
2022-07-29T07:04:23.418Z,1.80
2022-07-29T07:05:23.412Z,1.90
2022-07-29T07:06:23.394Z,1.80
2022-07-29T07:07:23.385Z,1.70
2022-07-29T07:08:23.386Z,2.00
2022-07-29T07:09:23.408Z,2.10
2022-07-29T07:10:23.375Z,1.90
2022-07-29T07:11:23.367Z,2.00
2022-07-29T07:12:23.342Z,1.80
2022-07-29T07:13:23.318Z,1.80
2022-07-29T07:14:23.305Z,1.70
2022-07-29T07:15:23.299Z,1.90
2022-07-29T07:16:24.325Z,1.70
2022-07-29T07:17:23.274Z,1.80
2022-07-29T07:18:23.261Z,1.90
2022-07-29T07:19:23.254Z,1.80
2022-07-29T07:20:23.257Z,2.00
2022-07-29T07:21:23.231Z,1.70
2022-07-29T07:22:23.216Z,1.90
2022-07-29T07:23:23.213Z,1.90
2022-07-29T07:24:23.194Z,2.00
2022-07-29T07:25:23.188Z,1.90
2022-07-29T07:26:23.176Z,1.80
2022-07-29T07:27:23.167Z,2.30
2022-07-29T07:28:24.530Z,1.80
2022-07-29T07:29:23.144Z,1.90
2022-07-29T07:30:23.179Z,1.90
2022-07-29T07:31:23.157Z,1.90
2022-07-29T07:32:23.217Z,1.70
2022-07-29T07:33:23.118Z,1.90
2022-07-29T07:34:29.481Z,2.20
2022-07-29T07:35:23.082Z,1.90
2022-07-29T07:36:23.071Z,1.70
2022-07-29T07:37:23.055Z,1.80
2022-07-29T07:38:23.044Z,1.90
2022-07-29T07:39:23.032Z,2.10
2022-07-29T07:40:23.081Z,2.00
2022-07-29T07:41:23.013Z,2.00
2022-07-29T07:42:23.003Z,1.80
2022-07-29T07:43:22.990Z,2.00
2022-07-29T07:44:23.743Z,2.00
2022-07-29T07:45:22.969Z,2.00
2022-07-29T07:46:23.234Z,2.20
2022-07-29T07:47:22.953Z,1.90
2022-07-29T07:48:22.938Z,1.50
2022-07-29T07:49:23.113Z,1.80
2022-07-29T07:50:22.917Z,1.90
2022-07-29T07:51:22.908Z,1.80
2022-07-29T07:52:22.893Z,2.00
2022-07-29T07:53:22.891Z,1.90
2022-07-29T07:54:22.907Z,1.70
2022-07-29T07:55:22.908Z,2.20
2022-07-29T07:56:22.869Z,2.00
2022-07-29T07:57:22.859Z,2.00
2022-07-29T07:58:22.828Z,1.80
2022-07-29T07:59:22.817Z,1.70
2022-07-29T08:00:23.569Z,2.00
2022-07-29T08:01:22.846Z,2.10
2022-07-29T08:02:22.894Z,1.70
2022-07-29T08:03:22.773Z,2.00
2022-07-29T08:04:27.519Z,2.20
2022-07-29T08:05:22.758Z,2.00
2022-07-29T08:06:22.746Z,1.80
2022-07-29T08:07:22.731Z,2.00
2022-07-29T08:08:22.721Z,2.40
2022-07-29T08:09:29.393Z,2.10
2022-07-29T08:10:23.726Z,1.90
2022-07-29T08:11:22.689Z,2.00
2022-07-29T08:12:22.682Z,2.20
2022-07-29T08:13:22.668Z,1.90
2022-07-29T08:14:22.658Z,1.90
2022-07-29T08:15:22.645Z,1.90
2022-07-29T08:16:22.748Z,2.00
2022-07-29T08:17:22.659Z,1.90
2022-07-29T08:18:22.638Z,1.80
2022-07-29T08:19:22.643Z,2.10
2022-07-29T08:20:22.594Z,1.80
2022-07-29T08:21:22.586Z,2.10
2022-07-29T08:22:22.573Z,2.10
2022-07-29T08:23:22.561Z,2.10
2022-07-29T08:24:22.550Z,1.90
2022-07-29T08:25:22.541Z,1.70
2022-07-29T08:26:22.532Z,1.80
2022-07-29T08:27:42.426Z,2.20
2022-07-29T08:28:25.883Z,2.00
2022-07-29T08:29:22.496Z,2.10
2022-07-29T08:30:22.490Z,1.90
2022-07-29T08:31:22.570Z,2.10
2022-07-29T08:32:50.964Z,2.00
2022-07-29T08:33:23.484Z,1.80
2022-07-29T08:34:26.901Z,1.80
2022-07-29T08:35:22.438Z,2.20
2022-07-29T08:36:22.431Z,2.20
2022-07-29T08:37:22.416Z,2.10
2022-07-29T08:38:22.450Z,2.20
2022-07-29T08:39:22.467Z,1.70
2022-07-29T08:40:30.558Z,1.70
2022-07-29T08:41:23.482Z,2.00
2022-07-29T08:42:22.437Z,1.80
2022-07-29T08:43:22.351Z,2.50
2022-07-29T08:44:30.382Z,2.00
2022-07-29T08:45:23.624Z,1.90
2022-07-29T08:46:22.398Z,2.20
2022-07-29T08:47:22.309Z,2.10
2022-07-29T08:48:22.330Z,2.00
2022-07-29T08:49:22.364Z,2.10
2022-07-29T08:50:22.279Z,1.80
2022-07-29T08:51:22.269Z,1.80
2022-07-29T08:52:22.259Z,2.10
2022-07-29T08:53:22.245Z,2.00
2022-07-29T08:54:22.241Z,2.10
2022-07-29T08:55:22.228Z,2.00
2022-07-29T08:56:22.213Z,1.80
2022-07-29T08:57:22.203Z,1.80
2022-07-29T08:58:23.257Z,1.80
2022-07-29T08:59:22.185Z,1.80
2022-07-29T09:00:22.182Z,1.80
2022-07-29T09:01:22.294Z,2.00
2022-07-29T09:02:22.158Z,2.00
2022-07-29T09:03:22.305Z,1.60
2022-07-29T09:04:22.182Z,1.70
2022-07-29T09:05:22.180Z,1.90
2022-07-29T09:06:22.136Z,1.50
2022-07-29T09:07:22.135Z,1.80
2022-07-29T09:08:22.265Z,1.80
2022-07-29T09:09:22.084Z,1.70
2022-07-29T09:10:22.072Z,1.90
2022-07-29T09:11:22.058Z,1.50
2022-07-29T09:12:29.359Z,1.60
2022-07-29T09:13:23.069Z,1.70
2022-07-29T09:14:22.036Z,1.90
2022-07-29T09:15:22.023Z,1.80
2022-07-29T09:16:43.785Z,1.70
2022-07-29T09:17:23.093Z,1.90
2022-07-29T09:18:30.890Z,1.70
2022-07-29T09:19:21.983Z,1.70
2022-07-29T09:20:21.972Z,1.60
2022-07-29T09:21:21.964Z,1.70
2022-07-29T09:22:21.953Z,2.00
2022-07-29T09:23:23.820Z,2.00
2022-07-29T09:24:21.937Z,2.00
2022-07-29T09:25:21.935Z,1.70
2022-07-29T09:26:21.938Z,1.80
2022-07-29T09:27:21.943Z,1.90
2022-07-29T09:28:22.093Z,2.10
2022-07-29T09:29:21.906Z,1.90
2022-07-29T09:30:28.309Z,1.70
2022-07-29T09:31:23.001Z,2.10
2022-07-29T09:32:21.854Z,2.00
2022-07-29T09:33:22.098Z,2.00
2022-07-29T09:34:21.838Z,1.90
2022-07-29T09:35:21.821Z,2.00
2022-07-29T09:36:21.816Z,1.90
2022-07-29T09:37:21.834Z,2.00
2022-07-29T09:38:22.099Z,1.80
2022-07-29T09:39:22.054Z,1.90
2022-07-29T09:40:21.774Z,1.80
2022-07-29T09:41:21.762Z,1.70
2022-07-29T09:42:21.754Z,2.10
2022-07-29T09:43:21.740Z,2.00
2022-07-29T09:44:21.731Z,2.00
2022-07-29T09:45:21.720Z,1.70
2022-07-29T09:46:21.748Z,1.80
2022-07-29T09:47:21.700Z,2.00
2022-07-29T09:48:21.691Z,1.70
2022-07-29T09:49:21.776Z,1.90
2022-07-29T09:50:21.688Z,2.00
2022-07-29T09:51:27.044Z,1.80
2022-07-29T09:52:21.658Z,1.80
2022-07-29T09:53:21.637Z,1.80
2022-07-29T09:54:21.631Z,1.70
2022-07-29T09:55:21.619Z,1.50
2022-07-29T09:56:21.613Z,1.40
2022-07-29T09:57:21.596Z,1.40
2022-07-29T09:58:21.594Z,1.70
2022-07-29T09:59:21.582Z,1.60
2022-07-29T10:00:21.582Z,1.50
2022-07-29T10:01:21.589Z,1.70
2022-07-29T10:02:23.946Z,1.70
2022-07-29T10:03:21.636Z,1.70
2022-07-29T10:04:21.529Z,1.60
2022-07-29T10:05:21.536Z,1.70
2022-07-29T10:06:21.510Z,1.50
2022-07-29T10:07:21.493Z,1.80
2022-07-29T10:08:21.488Z,1.90
2022-07-29T10:09:22.309Z,1.60
2022-07-29T10:10:21.463Z,1.60
2022-07-29T10:11:21.453Z,1.80
2022-07-29T10:12:21.461Z,1.90
2022-07-29T10:13:21.496Z,1.40
2022-07-29T10:14:21.449Z,1.70
2022-07-29T10:15:21.408Z,1.60
2022-07-29T10:16:21.458Z,1.40
2022-07-29T10:17:21.390Z,1.50
2022-07-29T10:18:21.379Z,1.70
2022-07-29T10:19:21.374Z,1.50
2022-07-29T10:20:21.362Z,1.50
2022-07-29T10:21:34.947Z,1.60
2022-07-29T10:22:50.407Z,1.80
2022-07-29T10:23:21.336Z,1.80
2022-07-29T10:24:21.319Z,1.60
2022-07-29T10:25:21.310Z,1.50
2022-07-29T10:26:21.301Z,1.70
2022-07-29T10:27:21.287Z,1.70
2022-07-29T10:28:21.282Z,1.60
2022-07-29T10:29:21.491Z,1.70
2022-07-29T10:30:21.259Z,1.70
2022-07-29T10:31:21.316Z,1.50
2022-07-29T10:32:21.309Z,1.90
2022-07-29T10:33:21.514Z,1.70
2022-07-29T10:34:21.234Z,1.70
2022-07-29T10:35:21.283Z,1.70
2022-07-29T10:36:21.221Z,1.70
2022-07-29T10:37:21.198Z,2.00
2022-07-29T10:38:21.176Z,1.80
2022-07-29T10:39:22.231Z,1.70
2022-07-29T10:40:21.156Z,1.80
2022-07-29T10:41:21.143Z,1.70
2022-07-29T10:42:29.518Z,1.80
2022-07-29T10:43:21.130Z,1.90
2022-07-29T10:44:23.314Z,1.90
2022-07-29T10:45:21.107Z,1.70
2022-07-29T10:46:21.145Z,1.60
2022-07-29T10:47:21.084Z,2.00
2022-07-29T10:48:21.086Z,1.60
2022-07-29T10:49:24.394Z,1.60
2022-07-29T10:50:21.061Z,1.90
2022-07-29T10:51:21.048Z,2.00
2022-07-29T10:52:21.042Z,1.80
2022-07-29T10:53:22.163Z,1.70
2022-07-29T10:54:21.018Z,1.60
2022-07-29T10:55:21.008Z,1.80
2022-07-29T10:56:21.002Z,1.80
2022-07-29T10:57:21.015Z,1.70
2022-07-29T10:58:21.194Z,1.90
2022-07-29T10:59:21.402Z,2.10
2022-07-29T11:00:20.996Z,1.70
2022-07-29T11:03:22.969Z,1.50
2022-07-29T11:04:20.920Z,1.60
2022-07-29T11:05:21.725Z,1.80
2022-07-29T11:06:26.174Z,1.40
2022-07-29T11:07:20.881Z,1.60
2022-07-29T11:08:25.308Z,1.70
2022-07-29T11:09:30.157Z,1.70
2022-07-29T11:10:21.930Z,1.50
2022-07-29T11:11:22.202Z,1.70
2022-07-29T11:12:20.836Z,1.50
2022-07-29T11:13:20.825Z,1.60
2022-07-29T11:14:26.647Z,1.70
2022-07-29T11:15:20.804Z,1.90
2022-07-29T11:16:21.359Z,1.50
2022-07-29T11:17:20.787Z,1.70
2022-07-29T11:18:20.783Z,1.60
2022-07-29T11:19:26.176Z,1.60
2022-07-29T11:20:21.788Z,1.50
2022-07-29T11:21:23.386Z,1.50
2022-07-29T11:22:20.762Z,1.70
2022-07-29T11:23:20.723Z,1.70
2022-07-29T11:24:29.049Z,1.80
2022-07-29T11:25:50.282Z,1.70
2022-07-29T11:26:20.700Z,1.70
2022-07-29T11:27:20.687Z,1.80
2022-07-29T11:28:22.956Z,1.50
2022-07-29T11:29:20.673Z,1.50
2022-07-29T11:30:20.684Z,1.70
2022-07-29T11:31:20.660Z,1.40
2022-07-29T11:32:23.266Z,1.50
2022-07-29T11:33:20.720Z,1.60
2022-07-29T11:34:21.643Z,1.40
2022-07-29T11:35:37.568Z,1.40
2022-07-29T11:36:27.805Z,1.30
2022-07-29T11:37:27.693Z,1.30
2022-07-29T11:38:21.609Z,1.60
2022-07-29T11:39:20.569Z,1.40
2022-07-29T11:40:21.483Z,1.60
2022-07-29T11:41:20.904Z,1.70
2022-07-29T11:42:28.181Z,1.40
2022-07-29T11:43:21.557Z,1.60
2022-07-29T11:44:20.543Z,1.60
2022-07-29T11:45:43.029Z,1.50
2022-07-29T11:46:25.162Z,1.80
2022-07-29T11:47:20.561Z,1.50
2022-07-29T11:48:28.798Z,1.80
2022-07-29T11:49:22.084Z,1.60
2022-07-29T11:50:20.461Z,1.60
2022-07-29T11:51:20.449Z,1.30
2022-07-29T11:52:20.440Z,1.40
2022-07-29T11:53:20.431Z,1.50
2022-07-29T11:54:27.634Z,1.50
2022-07-29T11:55:20.410Z,1.40
2022-07-29T11:56:20.406Z,1.70
2022-07-29T11:57:20.399Z,1.30
2022-07-29T11:58:20.384Z,1.30
2022-07-29T11:59:20.375Z,1.40
2022-07-29T12:00:20.363Z,1.40
2022-07-29T12:01:20.350Z,1.50
2022-07-29T12:02:37.555Z,1.40
2022-07-29T12:03:21.382Z,1.20
2022-07-29T12:04:21.347Z,1.40
2022-07-29T12:05:35.943Z,1.50
2022-07-29T12:06:21.341Z,1.30
2022-07-29T12:07:20.412Z,1.50
2022-07-29T12:08:20.279Z,1.40
2022-07-29T12:09:20.653Z,1.40
2022-07-29T12:10:30.653Z,1.30
2022-07-29T12:11:20.874Z,1.50
2022-07-29T12:12:20.239Z,1.50
2022-07-29T12:13:20.232Z,1.50
2022-07-29T12:14:20.216Z,1.40
2022-07-29T12:15:20.361Z,1.30
2022-07-29T12:16:26.165Z,1.40
2022-07-29T12:17:20.189Z,1.40
2022-07-29T12:18:20.179Z,1.20
2022-07-29T12:19:20.168Z,1.40
2022-07-29T12:20:20.491Z,1.30
2022-07-29T12:21:20.149Z,1.60
2022-07-29T12:22:20.135Z,1.20
2022-07-29T12:23:20.198Z,1.20
2022-07-29T12:24:20.396Z,1.30
2022-07-29T12:25:35.445Z,1.30
2022-07-29T12:26:25.326Z,1.60
2022-07-29T12:27:29.550Z,1.40
2022-07-29T12:28:26.802Z,1.10
2022-07-29T12:29:35.566Z,1.30
2022-07-29T12:30:20.050Z,1.70
2022-07-29T12:31:42.920Z,1.30
2022-07-29T12:32:20.116Z,1.20
2022-07-29T12:33:20.091Z,1.40
2022-07-29T12:34:20.011Z,1.50
2022-07-29T12:35:20.002Z,1.30
2022-07-29T12:36:19.992Z,1.30
2022-07-29T12:37:19.981Z,1.60
2022-07-29T12:38:19.974Z,1.30
2022-07-29T12:39:19.962Z,1.30
2022-07-29T12:40:19.959Z,1.60
2022-07-29T12:41:19.946Z,1.60
2022-07-29T12:42:19.936Z,1.30
2022-07-29T12:43:19.919Z,1.40
2022-07-29T12:44:19.910Z,1.10
2022-07-29T12:45:19.910Z,1.40
2022-07-29T12:46:19.925Z,1.50
2022-07-29T12:47:19.887Z,1.40
2022-07-29T12:48:19.873Z,1.40
2022-07-29T12:49:19.939Z,1.40
2022-07-29T12:50:24.468Z,1.30
2022-07-29T12:51:19.890Z,1.50
2022-07-29T12:52:19.865Z,1.40
2022-07-29T12:53:19.839Z,1.50
2022-07-29T12:54:19.875Z,1.30
2022-07-29T12:55:19.803Z,1.30
2022-07-29T12:56:41.635Z,1.40
2022-07-29T12:57:20.803Z,1.50
2022-07-29T12:58:19.767Z,1.40
2022-07-29T12:59:19.755Z,1.60
2022-07-29T13:00:19.749Z,1.30
2022-07-29T13:01:19.800Z,1.20
2022-07-29T13:02:19.744Z,1.50
2022-07-29T13:03:19.715Z,1.30
2022-07-29T13:04:19.708Z,1.40
2022-07-29T13:05:19.696Z,1.50
2022-07-29T13:06:19.683Z,1.80
2022-07-29T13:07:19.674Z,1.40
2022-07-29T13:08:22.114Z,1.50
2022-07-29T13:09:19.656Z,1.50
2022-07-29T13:10:19.642Z,1.40
2022-07-29T13:11:19.634Z,1.70
2022-07-29T13:12:19.624Z,1.60
2022-07-29T13:13:19.693Z,1.20
2022-07-29T13:14:19.766Z,1.50
2022-07-29T13:15:19.866Z,1.30
2022-07-29T13:16:19.763Z,1.40
2022-07-29T13:17:19.573Z,1.30
2022-07-29T13:18:19.588Z,1.30
2022-07-29T13:19:19.641Z,1.60
2022-07-29T13:20:19.827Z,1.50